Time;durP1;ratioP1;P1;durP2;ratioP2;P2;SDS_P1;SDS_P2;PMS_P1;PMS_P2;Temp;Humidity;BMP_temperature;BMP_pressure;BME280_temperature;BME280_humidity;BME280_pressure;Samples;Min_cycle;Max_cycle;Signal;HPM_P1;HPM_P2
2022/11/08 00:03:53;;;;;;;33.15;13.02;;;;;;;3.90;81.58;99171.53;5056071;28;20089;-61
2022/11/08 00:14:31;;;;;;;32.10;12.07;;;;;;;4.04;81.38;99166.09;5058400;28;20059;-63
2022/11/08 00:16:57;;;;;;;32.17;12.93;;;;;;;4.02;81.30;99162.88;5055408;28;20044;-64
2022/11/08 00:19:23;;;;;;;27.30;13.25;;;;;;;3.96;81.71;99165.47;5073907;28;20123;-64
2022/11/08 00:21:48;;;;;;;29.40;11.88;;;;;;;3.90;81.84;99153.97;5055485;28;20044;-63
2022/11/08 00:24:14;;;;;;;37.20;15.85;;;;;;;4.01;82.13;99153.38;5038846;28;20051;-64
2022/11/08 00:26:39;;;;;;;27.40;11.68;;;;;;;4.05;81.81;99135.44;5055146;28;20242;-63
2022/11/08 00:29:05;;;;;;;26.45;11.35;;;;;;;4.03;81.54;99140.06;5055489;28;20059;-62
2022/11/08 00:31:30;;;;;;;31.63;12.80;;;;;;;4.10;81.44;99144.31;5055205;28;20045;-64
2022/11/08 00:33:56;;;;;;;27.65;12.48;;;;;;;4.07;82.03;99128.19;5073463;28;20041;-63
2022/11/08 00:36:22;;;;;;;31.00;12.90;;;;;;;4.13;81.16;99131.81;5072891;28;20113;-63
2022/11/08 00:38:48;;;;;;;32.25;13.02;;;;;;;4.19;81.21;99128.38;5055281;28;20045;-65
2022/11/08 00:41:14;;;;;;;30.75;12.18;;;;;;;4.13;80.83;99127.38;5072886;28;20048;-64
2022/11/08 00:43:39;;;;;;;32.25;11.63;;;;;;;4.13;80.95;99131.81;5055037;28;20040;-64
2022/11/08 00:46:05;;;;;;;30.38;13.00;;;;;;;4.23;81.30;99126.97;5054757;28;20048;-63
2022/11/08 00:48:30;;;;;;;27.75;12.15;;;;;;;4.27;80.68;99141.31;5054904;28;20412;-64
2022/11/08 00:51:01;;;;;;;32.90;12.45;;;;;;;4.26;81.24;99140.47;5055173;28;20067;-63
2022/11/08 00:53:26;;;;;;;28.10;12.15;;;;;;;4.20;80.94;99136.03;5072982;28;20051;-64
2022/11/08 00:56:02;;;;;;;25.95;11.85;;;;;;;4.20;80.20;99150.97;5072404;28;20048;-65
2022/11/08 00:58:28;;;;;;;32.65;12.27;;;;;;;4.15;81.28;99153.38;5038071;28;20056;-64
2022/11/08 01:00:54;;;;;;;29.25;13.50;;;;;;;4.16;81.10;99142.69;5071267;28;20063;-64
2022/11/08 01:03:22;;;;;;;29.77;13.27;;;;;;;4.21;80.50;99137.66;5038071;28;20064;-63
2022/11/08 01:05:49;;;;;;;28.15;12.27;;;;;;;4.12;81.58;99119.69;5054820;28;20055;-64
2022/11/08 01:08:15;;;;;;;34.85;12.95;;;;;;;4.05;82.04;99122.31;5072702;28;20535;-63
2022/11/08 01:10:43;;;;;;;32.42;11.77;;;;;;;4.09;82.01;99131.41;5054705;28;20048;-63
2022/11/08 01:13:10;;;;;;;27.40;12.30;;;;;;;4.19;81.68;99129.19;5037840;28;20059;-63
2022/11/08 01:15:39;;;;;;;32.33;13.32;;;;;;;4.24;81.18;99136.47;5054730;28;20050;-63
2022/11/08 01:18:06;;;;;;;30.08;13.02;;;;;;;4.22;81.07;99133.22;5072382;28;20131;-63
2022/11/08 01:20:33;;;;;;;31.63;13.52;;;;;;;4.10;81.08;99117.28;5072138;28;20501;-64
2022/11/08 01:22:58;;;;;;;34.15;13.57;;;;;;;4.18;81.53;99126.78;5054529;28;20037;-64
2022/11/08 01:25:24;;;;;;;34.65;13.52;;;;;;;4.13;82.42;99111.63;5072256;28;20390;-63
2022/11/08 01:27:50;;;;;;;35.05;14.38;;;;;;;4.16;82.02;99115.66;5054222;28;20181;-64
2022/11/08 01:30:16;;;;;;;33.40;13.80;;;;;;;4.06;82.16;99106.38;5071964;28;20048;-63
2022/11/08 01:32:41;;;;;;;36.72;14.48;;;;;;;4.04;82.38;99099.72;5037464;28;20453;-64
2022/11/08 01:35:07;;;;;;;30.23;12.90;;;;;;;4.12;82.51;99104.78;5071920;28;20127;-66
2022/11/08 01:37:33;;;;;;;28.08;12.35;;;;;;;4.17;82.22;99096.28;5071795;28;20087;-62
2022/11/08 01:39:59;;;;;;;28.27;13.07;;;;;;;4.07;82.04;99091.47;5053888;28;20072;-64
2022/11/08 01:42:29;;;;;;;39.53;14.15;;;;;;;4.04;83.05;99092.66;5037240;28;20036;-62
2022/11/08 01:45:06;;;;;;;35.20;13.88;;;;;;;4.10;82.56;99091.06;5053811;28;20048;-62
2022/11/08 01:47:32;;;;;;;32.47;14.75;;;;;;;4.06;82.79;99095.91;5071658;28;20078;-64
2022/11/08 01:50:13;;;;;;;37.20;13.50;;;;;;;4.04;83.10;99097.91;5054027;28;20041;-64
2022/11/08 01:52:50;;;;;;;31.67;12.93;;;;;;;4.10;82.96;99098.91;5071730;28;20477;-64
2022/11/08 01:55:22;;;;;;;31.08;13.23;;;;;;;4.12;82.47;99096.91;5053560;28;20048;-63
2022/11/08 01:57:52;;;;;;;36.22;13.10;;;;;;;4.05;82.79;99093.47;5053879;28;20052;-62
2022/11/08 02:00:18;;;;;;;38.45;14.27;;;;;;;3.89;83.20;99089.44;5053667;28;20062;-63
2022/11/08 02:02:48;;;;;;;33.35;13.10;;;;;;;3.83;83.10;99088.41;5071470;28;20041;-63
2022/11/08 02:05:25;;;;;;;35.08;14.48;;;;;;;3.85;83.50;99088.22;5053262;28;20075;-63
2022/11/08 02:08:03;;;;;;;40.05;14.35;;;;;;;3.96;83.24;99089.44;5037796;28;20464;-63
2022/11/08 02:10:37;;;;;;;33.35;13.15;;;;;;;3.96;83.34;99084.19;5053771;28;20078;-64
2022/11/08 02:13:06;;;;;;;37.25;13.15;;;;;;;4.03;83.14;99092.84;5053645;28;20142;-64
2022/11/08 02:15:32;;;;;;;33.85;12.82;;;;;;;4.04;82.37;99086.63;5037119;28;20059;-63
2022/11/08 02:17:57;;;;;;;36.47;13.80;;;;;;;4.09;82.89;99085.00;5071436;28;20450;-63
2022/11/08 02:20:23;;;;;;;30.77;12.70;;;;;;;4.07;82.76;99087.00;5053277;28;20067;-63
2022/11/08 02:23:12;;;;;;;32.67;12.98;;;;;;;4.06;83.21;99074.13;5053401;28;20543;-63
2022/11/08 02:25:38;;;;;;;35.50;13.73;;;;;;;4.02;83.17;99073.69;5053616;28;20421;-63
2022/11/08 02:28:04;;;;;;;38.03;13.70;;;;;;;4.00;83.49;99078.34;5053261;28;20069;-63
2022/11/08 02:30:36;;;;;;;40.03;14.40;;;;;;;3.96;83.47;99061.38;5071047;28;20530;-64
2022/11/08 02:33:19;;;;;;;35.03;14.13;;;;;;;3.90;83.91;99069.25;5053174;28;20037;-64
2022/11/08 02:35:53;;;;;;;38.72;13.35;;;;;;;3.92;83.72;99062.81;5053168;28;20099;-63
2022/11/08 02:38:20;;;;;;;39.22;14.02;;;;;;;3.94;83.67;99059.97;5029837;28;20052;-62
2022/11/08 02:40:49;;;;;;;29.98;12.98;;;;;;;4.00;84.12;99062.63;5046779;28;20056;-64
2022/11/08 02:43:15;;;;;;;31.33;14.30;;;;;;;4.07;83.42;99060.78;5029865;28;20042;-63
2022/11/08 02:45:41;;;;;;;33.28;13.80;;;;;;;4.00;83.69;99053.91;5029722;28;20053;-64
2022/11/08 02:48:07;;;;;;;34.20;13.40;;;;;;;4.03;83.37;99041.22;5045715;28;20051;-63
2022/11/08 02:50:33;;;;;;;32.65;13.32;;;;;;;4.00;82.98;99049.50;5050965;28;20044;-63
2022/11/08 02:52:58;;;;;;;29.73;11.95;;;;;;;4.00;83.66;99051.28;5033157;28;20037;-63
2022/11/08 02:55:24;;;;;;;35.35;14.15;;;;;;;3.98;83.73;99046.25;5051226;28;20048;-63
2022/11/08 02:57:50;;;;;;;31.08;13.40;;;;;;;4.03;84.13;99032.53;5033070;28;20056;-64
2022/11/08 03:00:16;;;;;;;35.10;14.13;;;;;;;3.99;83.71;99032.13;5049853;28;20045;-63
2022/11/08 03:02:41;;;;;;;37.67;14.45;;;;;;;3.99;84.09;99044.44;5050990;28;20036;-63
2022/11/08 03:05:07;;;;;;;31.60;13.68;;;;;;;3.98;83.95;99042.84;5016460;28;20045;-64
2022/11/08 03:07:33;;;;;;;31.70;13.35;;;;;;;4.01;83.78;99035.38;5050841;28;20571;-63
2022/11/08 03:09:58;;;;;;;36.13;13.73;;;;;;;4.05;84.17;99038.38;5049607;28;20041;-63
2022/11/08 03:12:24;;;;;;;37.72;13.57;;;;;;;4.08;84.14;99037.97;5051001;28;20105;-64
2022/11/08 03:14:50;;;;;;;33.88;13.32;;;;;;;4.10;83.91;99030.72;5049986;28;20045;-63
2022/11/08 03:17:16;;;;;;;34.33;13.48;;;;;;;4.09;83.80;99040.41;5050942;28;20099;-62
2022/11/08 03:19:41;;;;;;;39.95;12.75;;;;;;;4.06;84.04;99026.91;5053404;28;20041;-67
2022/11/08 03:22:07;;;;;;;29.65;12.23;;;;;;;4.13;83.39;99034.75;5052977;28;20041;-65
2022/11/08 03:24:33;;;;;;;34.67;13.63;;;;;;;4.15;84.44;99035.34;5053069;28;20037;-65
2022/11/08 03:26:59;;;;;;;30.30;13.07;;;;;;;4.13;83.91;99026.88;5054466;28;20471;-64
2022/11/08 03:29:24;;;;;;;39.83;13.80;;;;;;;4.11;83.37;99024.44;5054927;28;20486;-65
2022/11/08 03:31:50;;;;;;;36.90;13.95;;;;;;;4.05;83.90;99022.66;5053037;28;20079;-65
2022/11/08 03:34:16;;;;;;;30.58;12.63;;;;;;;4.14;84.21;99021.41;5054751;28;20041;-65
2022/11/08 03:36:42;;;;;;;34.55;12.98;;;;;;;4.12;84.39;99020.00;5053060;28;20517;-63
2022/11/08 03:39:07;;;;;;;35.15;13.32;;;;;;;4.19;83.76;99021.63;5053123;28;20082;-65
2022/11/08 03:41:33;;;;;;;33.80;12.85;;;;;;;4.13;84.06;99013.78;5036307;28;20566;-63
2022/11/08 03:43:59;;;;;;;33.40;13.40;;;;;;;4.15;84.41;99009.94;5036502;28;20045;-63
2022/11/08 03:46:24;;;;;;;33.38;13.88;;;;;;;4.15;84.36;99012.56;5054009;28;20096;-64
2022/11/08 03:48:50;;;;;;;32.65;13.27;;;;;;;4.19;83.80;99019.00;5054181;28;20036;-63
2022/11/08 03:51:15;;;;;;;29.20;12.73;;;;;;;4.18;84.46;99017.41;5035902;28;20049;-64
2022/11/08 03:53:41;;;;;;;29.67;12.88;;;;;;;4.17;84.09;99009.72;5053717;28;20044;-63
2022/11/08 03:56:07;;;;;;;29.15;12.27;;;;;;;4.08;84.83;99004.69;5053788;28;20037;-65
2022/11/08 03:58:34;;;;;;;31.15;12.15;;;;;;;4.09;84.69;99010.75;5052485;28;20480;-64
2022/11/08 04:01:03;;;;;;;31.63;12.88;;;;;;;4.08;84.29;99023.03;5035885;28;20131;-64
2022/11/08 04:03:29;;;;;;;28.70;12.20;;;;;;;4.12;84.79;99005.09;5052621;28;20063;-63
2022/11/08 04:05:55;;;;;;;31.88;13.45;;;;;;;4.08;84.32;99004.69;5052398;28;20053;-64
2022/11/08 04:08:20;;;;;;;36.00;12.90;;;;;;;4.04;84.30;99008.72;5053798;28;20051;-65
2022/11/08 04:10:46;;;;;;;36.03;12.85;;;;;;;4.06;85.17;99009.34;5035770;28;20048;-63
2022/11/08 04:15:56;;;;;;;29.05;12.68;;;;;;;4.16;85.18;99003.66;5052218;28;20053;-64
2022/11/08 04:21:21;;;;;;;29.17;12.55;;;;;;;4.07;85.30;98991.78;5053189;28;20044;-64
2022/11/08 04:23:51;;;;;;;34.30;13.18;;;;;;;4.05;84.95;98994.59;5036684;28;20037;-63
2022/11/08 04:26:18;;;;;;;34.28;13.75;;;;;;;4.05;85.47;98999.03;5019093;28;20049;-64
2022/11/08 04:28:44;;;;;;;32.33;12.38;;;;;;;4.07;85.27;98991.78;5052139;28;20048;-63
2022/11/08 04:31:13;;;;;;;33.50;12.43;;;;;;;4.05;85.28;98999.03;5051409;28;20502;-63
2022/11/08 04:33:39;;;;;;;32.55;12.85;;;;;;;4.04;85.69;98992.19;5053373;28;20036;-64
2022/11/08 04:36:15;;;;;;;27.90;12.15;;;;;;;4.06;85.42;98980.50;5051984;28;20131;-64
2022/11/08 04:38:42;;;;;;;26.63;12.07;;;;;;;4.15;84.89;98990.75;5051601;28;20589;-62
2022/11/08 04:41:12;;;;;;;26.20;11.50;;;;;;;4.23;84.43;99001.81;5053147;28;20132;-63
2022/11/08 04:43:38;;;;;;;30.38;12.80;;;;;;;4.25;84.20;98996.38;5053286;28;20045;-64
2022/11/08 04:46:09;;;;;;;26.70;11.88;;;;;;;4.28;84.53;98994.16;5034919;28;20048;-63
2022/11/08 04:48:38;;;;;;;27.13;11.80;;;;;;;4.29;84.67;99002.81;5051701;28;20083;-63
2022/11/08 04:51:10;;;;;;;27.38;12.05;;;;;;;4.33;83.90;99002.22;5034773;28;20539;-63
2022/11/08 04:53:36;;;;;;;32.95;12.63;;;;;;;4.24;84.32;98998.22;5053055;28;20049;-64
2022/11/08 04:56:07;;;;;;;29.20;12.02;;;;;;;4.23;84.45;98996.56;5052554;28;20178;-63
2022/11/08 04:58:41;;;;;;;28.00;11.85;;;;;;;4.19;84.75;98999.84;5051544;28;20094;-63
2022/11/08 05:01:09;;;;;;;29.02;12.48;;;;;;;4.17;85.25;98993.97;5051267;28;20048;-65
2022/11/08 05:03:35;;;;;;;28.63;12.68;;;;;;;4.23;84.49;98993.94;5052929;28;20085;-64
2022/11/08 05:06:06;;;;;;;27.35;12.68;;;;;;;4.24;83.99;98994.78;5050964;28;20049;-66
2022/11/08 05:08:32;;;;;;;33.33;12.38;;;;;;;4.15;84.62;98988.94;5051436;28;20111;-71
2022/11/08 05:11:00;;;;;;;27.63;11.70;;;;;;;4.25;84.15;98984.06;5051591;28;20044;-65
2022/11/08 05:13:26;;;;;;;28.17;12.65;;;;;;;4.31;83.72;99001.59;5025749;28;20045;-65
2022/11/08 05:15:51;;;;;;;26.38;12.02;;;;;;;4.41;84.40;98995.13;5052658;28;20102;-65
2022/11/08 05:18:17;;;;;;;28.67;12.65;;;;;;;4.49;83.98;98994.91;5051095;28;20490;-66
2022/11/08 05:23:27;;;;;;;25.92;12.38;;;;;;;4.36;84.11;98987.09;5034298;28;20045;-65
2022/11/08 05:25:54;;;;;;;25.77;12.35;;;;;;;4.49;83.34;98976.53;5050950;28;20057;-65
2022/11/08 05:28:20;;;;;;;24.73;10.60;;;;;;;4.49;82.99;98979.94;5050803;28;20049;-66
2022/11/08 05:30:54;;;;;;;25.35;10.82;;;;;;;4.51;83.49;98983.19;5034486;28;20477;-68
2022/11/08 05:33:20;;;;;;;22.77;10.77;;;;;;;4.51;84.25;98988.44;5050955;28;20040;-68
2022/11/08 05:35:46;;;;;;;21.92;10.68;;;;;;;4.53;83.88;98985.63;5050497;28;20053;-67
2022/11/08 05:38:13;;;;;;;24.40;10.40;;;;;;;4.58;84.03;98984.97;5051942;28;20528;-72
2022/11/08 05:40:39;;;;;;;21.85;10.45;;;;;;;4.52;83.94;98986.59;5050216;28;20045;-67
2022/11/08 05:43:05;;;;;;;21.65;10.07;;;;;;;4.52;83.85;98979.53;5033547;28;20122;-67
2022/11/08 05:45:31;;;;;;;20.83;10.48;;;;;;;4.53;84.10;98977.75;5001437;28;20100;-63
2022/11/08 05:48:02;;;;;;;18.85;9.25;;;;;;;4.53;83.36;98980.38;5050477;28;20071;-65
2022/11/08 05:50:34;;;;;;;19.40;9.60;;;;;;;4.55;83.86;98975.69;5050473;28;20052;-65
2022/11/08 05:53:04;;;;;;;21.13;9.32;;;;;;;4.46;83.76;98969.88;5051938;28;20037;-65
2022/11/08 05:55:30;;;;;;;18.48;9.23;;;;;;;4.57;84.19;98972.88;5051724;28;20048;-66
2022/11/08 05:57:56;;;;;;;18.50;9.02;;;;;;;4.56;83.95;98969.44;5066878;28;20049;-65
2022/11/08 06:00:21;;;;;;;16.35;8.82;;;;;;;4.67;84.13;98967.97;5050168;28;20051;-65
2022/11/08 06:02:47;;;;;;;18.75;8.57;;;;;;;4.70;83.40;98967.53;5047064;28;20147;-65
2022/11/08 06:05:13;;;;;;;16.02;8.65;;;;;;;4.69;83.05;98974.63;5031728;28;20422;-66
2022/11/08 06:07:40;;;;;;;16.27;8.60;;;;;;;4.63;82.66;98967.59;5031250;28;20037;-65
2022/11/08 06:10:06;;;;;;;17.60;8.48;;;;;;;4.66;83.50;98961.91;5031654;28;20055;-63
2022/11/08 06:12:32;;;;;;;15.15;8.07;;;;;;;4.61;84.34;98956.47;5048915;28;20068;-65
2022/11/08 06:14:58;;;;;;;13.18;7.20;;;;;;;4.67;84.53;98954.84;5050178;28;20047;-65
2022/11/08 06:17:23;;;;;;;17.77;8.02;;;;;;;4.66;84.10;98955.88;5049066;28;20413;-65
2022/11/08 06:19:49;;;;;;;19.15;8.18;;;;;;;4.67;83.95;98957.47;5049390;28;20128;-67
2022/11/08 06:22:15;;;;;;;14.40;7.90;;;;;;;4.64;84.35;98956.06;5031923;28;20564;-65
2022/11/08 06:24:40;;;;;;;13.57;7.78;;;;;;;4.69;84.95;98956.25;5042734;28;20041;-65
2022/11/08 06:27:06;;;;;;;13.02;7.10;;;;;;;4.70;83.66;98951.78;5043954;28;20414;-66
2022/11/08 06:29:32;;;;;;;15.73;7.88;;;;;;;4.57;84.37;98952.66;5044612;28;20391;-66
2022/11/08 06:31:57;;;;;;;16.48;7.28;;;;;;;4.65;84.17;98959.50;5043836;28;20091;-65
2022/11/08 06:34:24;;;;;;;16.13;7.55;;;;;;;4.69;84.79;98953.63;5048117;28;20044;-65
2022/11/08 06:36:49;;;;;;;14.43;7.10;;;;;;;4.64;83.71;98961.31;5031747;28;20052;-64
2022/11/08 06:39:15;;;;;;;13.73;7.72;;;;;;;4.72;84.69;98957.66;5046157;28;20500;-65
2022/11/08 06:41:41;;;;;;;12.32;7.43;;;;;;;4.81;84.17;98960.84;5045498;28;20219;-66
2022/11/08 06:44:07;;;;;;;14.10;7.28;;;;;;;4.84;83.53;98961.22;5044861;28;20196;-64
2022/11/08 06:46:32;;;;;;;16.42;7.38;;;;;;;4.86;84.04;98959.19;5044079;28;20506;-65
2022/11/08 06:48:58;;;;;;;14.13;7.20;;;;;;;4.90;83.18;98956.94;5046272;28;20044;-66
2022/11/08 06:51:24;;;;;;;16.40;7.80;;;;;;;4.87;83.63;98962.63;5047131;28;20064;-64
2022/11/08 06:53:50;;;;;;;17.05;7.30;;;;;;;4.87;83.49;98966.03;5052423;28;20041;-63
2022/11/08 06:56:15;;;;;;;19.08;8.45;;;;;;;4.93;84.11;98967.81;5050620;28;20044;-63
2022/11/08 06:58:41;;;;;;;19.02;8.77;;;;;;;4.95;84.19;98968.44;5034169;28;20497;-63
2022/11/08 07:01:09;;;;;;;16.08;8.35;;;;;;;5.09;83.40;98957.84;5048794;28;20124;-63
2022/11/08 07:03:35;;;;;;;16.30;8.80;;;;;;;5.18;83.06;98961.84;5033835;28;20452;-63
2022/11/08 07:06:05;;;;;;;18.80;9.38;;;;;;;5.19;82.26;98958.97;5050660;28;20514;-64
2022/11/08 07:08:31;;;;;;;21.42;9.07;;;;;;;5.23;82.18;98967.25;5050888;28;20437;-64
2022/11/08 07:10:57;;;;;;;16.30;8.20;;;;;;;5.23;82.88;98962.81;5052039;28;20041;-65
2022/11/08 07:13:23;;;;;;;16.40;8.27;;;;;;;5.19;82.22;98953.72;5033974;28;20572;-64
2022/11/08 07:15:48;;;;;;;16.80;8.52;;;;;;;5.22;82.32;98957.75;5049921;28;20452;-65
2022/11/08 07:18:16;;;;;;;16.58;9.15;;;;;;;5.20;82.35;98959.78;5050698;28;20576;-65
2022/11/08 07:20:42;;;;;;;19.20;8.60;;;;;;;5.27;82.93;98957.13;5034539;28;20052;-64
2022/11/08 07:23:09;;;;;;;16.25;7.93;;;;;;;5.28;82.19;98948.22;5035148;28;20040;-66
2022/11/08 07:25:35;;;;;;;15.38;7.80;;;;;;;5.27;82.70;98941.38;5018479;28;20099;-65
2022/11/08 07:28:04;;;;;;;15.90;7.80;;;;;;;5.25;81.98;98941.56;5050396;28;20047;-65
2022/11/08 07:30:30;;;;;;;16.58;8.20;;;;;;;5.30;82.23;98938.31;5050512;28;20061;-64
2022/11/08 07:32:57;;;;;;;13.38;7.20;;;;;;;5.39;82.44;98937.81;5050965;28;20494;-65
2022/11/08 07:35:23;;;;;;;14.45;7.38;;;;;;;5.37;81.53;98939.84;5031964;28;20516;-64
2022/11/08 07:37:49;;;;;;;15.25;8.38;;;;;;;5.29;82.20;98944.56;5048009;28;20087;-64
2022/11/08 07:40:15;;;;;;;16.35;7.75;;;;;;;5.31;83.00;98932.03;5047902;28;20313;-64
2022/11/08 07:42:41;;;;;;;14.38;6.70;;;;;;;5.35;81.66;98936.63;5047719;28;20037;-64
2022/11/08 07:45:10;;;;;;;18.25;8.07;;;;;;;5.36;82.04;98943.50;5033280;28;20048;-65
2022/11/08 07:47:36;;;;;;;13.77;7.25;;;;;;;5.46;81.37;98935.13;5051559;28;20045;-64
2022/11/08 07:50:02;;;;;;;16.55;8.88;;;;;;;5.51;82.28;98939.75;5049436;28;20051;-66
2022/11/08 07:52:29;;;;;;;14.73;7.75;;;;;;;5.66;81.48;98941.03;5033587;28;20075;-65
2022/11/08 07:54:55;;;;;;;17.13;7.53;;;;;;;5.64;81.66;98937.00;5032355;28;20058;-64
2022/11/08 07:57:20;;;;;;;15.07;8.35;;;;;;;5.61;80.89;98934.78;5047582;28;20516;-63
2022/11/08 07:59:46;;;;;;;14.82;8.15;;;;;;;5.66;81.48;98929.72;5050888;28;20103;-64
2022/11/08 08:02:12;;;;;;;15.73;8.15;;;;;;;5.64;81.09;98932.53;5051577;28;20056;-63
2022/11/08 08:04:38;;;;;;;16.90;8.68;;;;;;;5.65;81.98;98934.16;5049111;28;20517;-65
2022/11/08 08:07:04;;;;;;;15.95;7.85;;;;;;;5.77;81.42;98930.84;5031451;28;20468;-65
2022/11/08 08:09:33;;;;;;;21.00;8.23;;;;;;;5.70;80.18;98923.78;5047695;28;20444;-62
2022/11/08 08:11:59;;;;;;;17.02;8.55;;;;;;;5.75;80.95;98932.88;5032020;28;20095;-63
2022/11/08 08:14:25;;;;;;;17.98;8.75;;;;;;;5.66;81.08;98934.97;5033498;28;20037;-62
2022/11/08 08:16:51;;;;;;;16.70;8.38;;;;;;;5.79;81.20;98940.09;5050435;28;20083;-64
2022/11/08 08:19:17;;;;;;;18.13;8.73;;;;;;;5.77;81.07;98931.63;5047915;28;20045;-63
2022/11/08 08:21:43;;;;;;;19.45;9.40;;;;;;;5.93;80.94;98951.31;5048591;28;20077;-63
2022/11/08 08:24:08;;;;;;;16.13;8.52;;;;;;;5.90;80.53;98949.09;5049543;28;20067;-64
2022/11/08 08:26:34;;;;;;;19.58;8.95;;;;;;;5.88;81.07;98945.88;5051442;28;20126;-63
2022/11/08 08:29:00;;;;;;;17.15;9.48;;;;;;;5.74;80.66;98939.16;5048786;28;20040;-67
2022/11/08 08:31:26;;;;;;;17.88;8.68;;;;;;;5.80;81.48;98948.81;5030698;28;20102;-70
2022/11/08 08:33:54;;;;;;;18.95;8.93;;;;;;;5.86;81.15;98947.94;5047196;28;20036;-70
2022/11/08 08:36:19;;;;;;;17.23;8.48;;;;;;;6.00;80.59;98938.09;5014220;28;20099;-69
2022/11/08 08:38:45;;;;;;;16.48;8.90;;;;;;;6.01;80.13;98940.53;5029530;28;20041;-71
2022/11/08 08:41:17;;;;;;;18.58;9.50;;;;;;;5.84;80.16;98937.63;5031417;28;20037;-66
2022/11/08 08:43:44;;;;;;;18.42;9.07;;;;;;;5.94;80.64;98931.06;5014776;28;20328;-69
2022/11/08 08:46:10;;;;;;;15.98;9.63;;;;;;;5.97;80.25;98923.56;5031209;28;20533;-69
2022/11/08 08:48:37;;;;;;;14.23;8.98;;;;;;;5.86;80.56;98932.16;5048413;28;20037;-68
2022/11/08 08:51:03;;;;;;;17.90;9.40;;;;;;;5.86;80.86;98935.59;5049921;28;20103;-67
2022/11/08 08:53:29;;;;;;;20.17;9.05;;;;;;;5.92;80.25;98933.91;5048909;28;20049;-69
2022/11/08 08:55:55;;;;;;;18.70;9.00;;;;;;;5.89;80.66;98927.25;5046923;28;20063;-68
2022/11/08 08:58:21;;;;;;;17.73;9.52;;;;;;;5.89;80.35;98926.47;5048694;28;20056;-68
2022/11/08 09:00:47;;;;;;;16.75;8.60;;;;;;;5.92;80.57;98924.19;5063882;28;20081;-67
2022/11/08 09:03:13;;;;;;;16.35;9.10;;;;;;;5.96;80.55;98931.66;5046340;28;20082;-69
2022/11/08 09:05:45;;;;;;;17.27;9.50;;;;;;;6.01;80.70;98929.19;5030473;28;20480;-69
2022/11/08 09:08:13;;;;;;;16.85;9.80;;;;;;;5.95;80.85;98930.88;5047833;28;20401;-68
2022/11/08 09:10:42;;;;;;;20.08;9.18;;;;;;;5.98;80.53;98925.19;5046474;28;20060;-68
2022/11/08 09:13:08;;;;;;;19.08;9.50;;;;;;;5.94;80.02;98902.13;5046278;28;20040;-68
2022/11/08 09:15:34;;;;;;;16.38;8.90;;;;;;;6.02;80.09;98918.44;5029138;28;20090;-68
2022/11/08 09:17:59;;;;;;;18.88;9.52;;;;;;;5.99;80.17;98921.50;5029177;28;20061;-68
2022/11/08 09:20:25;;;;;;;17.67;9.40;;;;;;;6.06;80.27;98917.00;5046003;28;20469;-68
2022/11/08 09:22:51;;;;;;;17.23;9.07;;;;;;;6.06;80.10;98918.78;5046138;28;20037;-68
2022/11/08 09:25:17;;;;;;;18.60;9.95;;;;;;;6.08;80.62;98916.75;5030448;28;20041;-68
2022/11/08 09:27:43;;;;;;;17.33;8.95;;;;;;;6.09;80.24;98910.50;5047200;28;20049;-68
2022/11/08 09:30:09;;;;;;;16.60;9.02;;;;;;;6.11;80.03;98918.94;5047336;28;20555;-69
2022/11/08 09:32:35;;;;;;;17.38;8.73;;;;;;;6.03;80.38;98906.09;5030361;28;20544;-67
2022/11/08 09:35:00;;;;;;;19.40;9.32;;;;;;;5.96;81.03;98908.00;5049038;28;20048;-68
2022/11/08 09:37:28;;;;;;;17.77;9.48;;;;;;;6.00;80.90;98909.97;5045370;28;20049;-71
2022/11/08 09:39:54;;;;;;;17.73;8.27;;;;;;;6.06;80.50;98903.00;5044114;28;20558;-67
2022/11/08 09:42:38;;;;;;;18.63;9.23;;;;;;;6.04;80.21;98903.25;5045315;28;20045;-64
2022/11/08 09:45:22;;;;;;;18.23;9.05;;;;;;;6.01;80.00;98901.06;5041454;28;20560;-66
2022/11/08 09:48:00;;;;;;;18.85;9.10;;;;;;;5.96;81.20;98902.72;5029326;28;20059;-66
2022/11/08 09:50:41;;;;;;;19.33;9.43;;;;;;;5.98;81.11;98904.13;5030308;28;20052;-67
2022/11/08 09:53:17;;;;;;;18.20;9.25;;;;;;;6.01;80.88;98902.88;5047177;28;20387;-67
2022/11/08 09:55:43;;;;;;;20.42;9.15;;;;;;;5.97;80.99;98904.34;5045578;28;20057;-68
2022/11/08 09:58:27;;;;;;;15.73;8.80;;;;;;;5.95;81.02;98896.66;5046808;28;20140;-67
2022/11/08 10:00:53;;;;;;;16.60;8.60;;;;;;;5.92;80.96;98892.63;5048105;28;20098;-67
2022/11/08 10:03:22;;;;;;;15.13;8.13;;;;;;;5.87;81.22;98895.09;5028734;28;20049;-67
2022/11/08 10:06:26;;;;;;;18.45;9.00;;;;;;;5.90;81.16;98904.38;5045911;28;20041;-67
2022/11/08 10:09:17;;;;;;;17.08;7.85;;;;;;;5.91;81.14;98900.72;5029096;28;20481;-65
2022/11/08 10:12:05;;;;;;;15.75;8.13;;;;;;;5.87;81.98;98899.56;5046619;28;20048;-67
2022/11/08 10:14:49;;;;;;;16.02;7.55;;;;;;;5.83;83.09;98896.56;5047388;28;20055;-66
2022/11/08 10:17:38;;;;;;;15.50;8.15;;;;;;;5.91;82.29;98903.34;5047472;28;20052;-68
2022/11/08 10:20:34;;;;;;;14.40;7.10;;;;;;;5.93;81.84;98893.44;5030005;28;20207;-68
2022/11/08 10:23:24;;;;;;;11.20;7.38;;;;;;;6.00;81.61;98888.09;5044968;28;20040;-67
2022/11/08 10:25:53;;;;;;;13.60;7.32;;;;;;;6.07;82.12;98891.47;5046082;28;20048;-68
2022/11/08 10:28:29;;;;;;;13.27;7.15;;;;;;;5.95;81.82;98898.50;5044582;28;20048;-69
2022/11/08 10:30:55;;;;;;;13.02;7.43;;;;;;;5.95;82.92;98877.47;5044116;28;20132;-67
2022/11/08 10:33:28;;;;;;;11.52;7.00;;;;;;;6.12;82.71;98891.63;5044518;28;20517;-68
2022/11/08 10:35:53;;;;;;;14.40;6.88;;;;;;;6.16;81.43;98894.63;5046534;28;20084;-69
2022/11/08 10:38:23;;;;;;;12.60;6.45;;;;;;;6.03;81.39;98880.59;5046857;28;20583;-67
2022/11/08 10:41:13;;;;;;;12.85;6.72;;;;;;;6.00;82.43;98888.94;5046102;28;20445;-68
2022/11/08 10:43:44;;;;;;;9.82;6.43;;;;;;;6.08;81.53;98891.25;5045230;28;20037;-67
2022/11/08 10:46:37;;;;;;;11.50;6.60;;;;;;;5.97;82.14;98883.28;5029751;28;20067;-68
2022/11/08 10:49:36;;;;;;;14.07;7.38;;;;;;;5.99;82.51;98879.41;5010857;28;20130;-68
2022/11/08 10:52:11;;;;;;;11.10;6.60;;;;;;;6.04;82.17;98882.19;5033029;28;20429;-68
2022/11/08 10:54:44;;;;;;;11.20;6.38;;;;;;;6.08;81.59;98882.56;5047384;28;20563;-69
2022/11/08 10:57:32;;;;;;;11.63;7.00;;;;;;;6.12;81.74;98875.84;5048483;28;20128;-67
2022/11/08 11:00:19;;;;;;;9.57;5.88;;;;;;;6.07;81.16;98876.50;5023027;28;20049;-68
2022/11/08 11:02:50;;;;;;;11.68;7.00;;;;;;;6.07;81.73;98876.50;5043481;28;20041;-68
2022/11/08 11:05:44;;;;;;;11.98;6.57;;;;;;;6.06;81.34;98872.25;5045660;28;20394;-68
2022/11/08 11:08:11;;;;;;;11.77;5.80;;;;;;;6.13;81.24;98867.72;5040548;28;20417;-68
2022/11/08 11:10:45;;;;;;;12.27;6.00;;;;;;;6.09;81.89;98863.13;5060452;28;20186;-68
2022/11/08 11:13:21;;;;;;;9.55;5.60;;;;;;;6.22;81.11;98860.31;5065127;28;20044;-68
2022/11/08 11:15:57;;;;;;;10.52;5.70;;;;;;;6.31;81.85;98877.41;5065429;28;20059;-68
2022/11/08 11:18:33;;;;;;;10.02;5.63;;;;;;;6.33;81.50;98870.09;5065884;28;20048;-69
2022/11/08 11:21:05;;;;;;;11.93;5.85;;;;;;;6.35;81.20;98868.06;5066677;28;20497;-67
2022/11/08 11:23:50;;;;;;;8.30;5.82;;;;;;;6.44;80.97;98863.28;5066448;28;20036;-69
2022/11/08 11:26:28;;;;;;;11.15;6.07;;;;;;;6.51;80.67;98869.25;5081986;28;20345;-67
2022/11/08 11:29:03;;;;;;;7.72;4.95;;;;;;;6.51;80.23;98876.38;5050713;28;20056;-67
2022/11/08 11:31:40;;;;;;;12.02;5.80;;;;;;;6.45;79.65;98874.63;5048282;28;20041;-67
2022/11/08 11:34:15;;;;;;;9.10;5.30;;;;;;;6.40;nan;98875.28;5082395;28;20083;-68
2022/11/08 11:36:44;;;;;;;8.70;5.60;;;;;;;6.45;80.40;98869.34;5064875;28;20040;-67
2022/11/08 11:39:23;;;;;;;11.68;5.90;;;;;;;6.51;80.43;98869.25;5066017;28;20048;-68
2022/11/08 11:42:10;;;;;;;8.25;5.07;;;;;;;6.50;80.14;98866.84;5071306;28;20401;-69
2022/11/08 11:45:09;;;;;;;9.38;5.53;;;;;;;6.58;80.43;98856.78;5068492;28;20063;-69
2022/11/08 11:47:46;;;;;;;9.48;5.65;;;;;;;6.62;79.89;98862.44;5065080;28;20568;-71
2022/11/08 11:50:21;;;;;;;8.95;5.35;;;;;;;6.58;80.11;98859.44;5070562;28;20501;-71
2022/11/08 11:52:47;;;;;;;11.68;5.53;;;;;;;6.59;79.59;98860.25;5069380;28;20051;-69
2022/11/08 11:55:16;;;;;;;10.43;5.50;;;;;;;6.49;79.86;98870.50;5070916;28;20135;-66
2022/11/08 11:57:54;;;;;;;15.40;6.05;;;;;;;6.26;80.71;98868.56;5069953;28;20052;-69